sensor_id;sensor_type;location;lat;lon;timestamp;temperature;humidity
21616;DHT22;10970;48.714;9.584;2022-07-24T00:00:15;19.40;99.90
21616;DHT22;10970;48.714;9.584;2022-07-24T00:02:41;19.30;99.90
21616;DHT22;10970;48.714;9.584;2022-07-24T00:05:08;19.30;99.90
21616;DHT22;10970;48.714;9.584;2022-07-24T00:07:34;19.30;99.90
21616;DHT22;10970;48.714;9.584;2022-07-24T00:10:00;19.20;99.90
21616;DHT22;10970;48.714;9.584;2022-07-24T00:12:26;19.20;99.90
21616;DHT22;10970;48.714;9.584;2022-07-24T00:14:52;19.20;99.90
21616;DHT22;10970;48.714;9.584;2022-07-24T00:17:17;19.20;99.90
21616;DHT22;10970;48.714;9.584;2022-07-24T00:19:43;19.10;99.90
21616;DHT22;10970;48.714;9.584;2022-07-24T00:22:09;19.00;99.90
21616;DHT22;10970;48.714;9.584;2022-07-24T00:24:35;19.00;99.90
21616;DHT22;10970;48.714;9.584;2022-07-24T00:27:00;19.00;99.90
21616;DHT22;10970;48.714;9.584;2022-07-24T00:29:27;19.00;99.90
21616;DHT22;10970;48.714;9.584;2022-07-24T00:31:52;19.00;99.90
21616;DHT22;10970;48.714;9.584;2022-07-24T00:34:18;19.00;99.90
21616;DHT22;10970;48.714;9.584;2022-07-24T00:36:43;19.00;99.90
21616;DHT22;10970;48.714;9.584;2022-07-24T00:39:10;19.00;99.90
21616;DHT22;10970;48.714;9.584;2022-07-24T00:41:36;18.90;99.90
21616;DHT22;10970;48.714;9.584;2022-07-24T00:44:10;18.90;99.90
21616;DHT22;10970;48.714;9.584;2022-07-24T00:46:38;18.90;99.90
21616;DHT22;10970;48.714;9.584;2022-07-24T00:49:06;18.90;99.90
21616;DHT22;10970;48.714;9.584;2022-07-24T00:51:33;18.90;99.90
21616;DHT22;10970;48.714;9.584;2022-07-24T00:54:04;18.80;99.90
21616;DHT22;10970;48.714;9.584;2022-07-24T00:56:30;18.70;99.90
21616;DHT22;10970;48.714;9.584;2022-07-24T00:58:56;18.70;99.90
21616;DHT22;10970;48.714;9.584;2022-07-24T01:01:22;18.60;99.90
21616;DHT22;10970;48.714;9.584;2022-07-24T01:03:47;18.60;99.90
21616;DHT22;10970;48.714;9.584;2022-07-24T01:06:14;18.50;99.90
21616;DHT22;10970;48.714;9.584;2022-07-24T01:08:40;18.50;99.90
21616;DHT22;10970;48.714;9.584;2022-07-24T01:11:09;18.60;99.90
21616;DHT22;10970;48.714;9.584;2022-07-24T01:13:35;18.60;99.90
21616;DHT22;10970;48.714;9.584;2022-07-24T01:16:01;18.60;99.90
21616;DHT22;10970;48.714;9.584;2022-07-24T01:18:27;18.60;99.90
21616;DHT22;10970;48.714;9.584;2022-07-24T01:20:52;18.50;99.90
21616;DHT22;10970;48.714;9.584;2022-07-24T01:23:18;18.50;99.90
21616;DHT22;10970;48.714;9.584;2022-07-24T01:25:44;18.50;99.90
21616;DHT22;10970;48.714;9.584;2022-07-24T01:28:09;18.50;99.90
21616;DHT22;10970;48.714;9.584;2022-07-24T01:30:35;18.50;99.90
21616;DHT22;10970;48.714;9.584;2022-07-24T01:33:01;18.50;99.90
21616;DHT22;10970;48.714;9.584;2022-07-24T01:35:27;18.50;99.90
21616;DHT22;10970;48.714;9.584;2022-07-24T01:37:53;18.40;99.90
21616;DHT22;10970;48.714;9.584;2022-07-24T01:40:19;18.40;99.90
21616;DHT22;10970;48.714;9.584;2022-07-24T01:42:45;18.30;99.90
21616;DHT22;10970;48.714;9.584;2022-07-24T01:45:11;18.30;99.90
21616;DHT22;10970;48.714;9.584;2022-07-24T01:47:38;18.20;99.90
21616;DHT22;10970;48.714;9.584;2022-07-24T01:50:04;18.20;99.90
21616;DHT22;10970;48.714;9.584;2022-07-24T01:52:30;18.20;99.90
21616;DHT22;10970;48.714;9.584;2022-07-24T01:54:55;18.20;99.90
21616;DHT22;10970;48.714;9.584;2022-07-24T01:57:21;18.10;99.90
21616;DHT22;10970;48.714;9.584;2022-07-24T01:59:47;18.10;99.90
21616;DHT22;10970;48.714;9.584;2022-07-24T02:02:12;18.10;99.90
21616;DHT22;10970;48.714;9.584;2022-07-24T02:04:38;18.00;99.90
21616;DHT22;10970;48.714;9.584;2022-07-24T02:07:04;18.00;99.90
21616;DHT22;10970;48.714;9.584;2022-07-24T02:09:30;18.00;99.90
21616;DHT22;10970;48.714;9.584;2022-07-24T02:11:55;17.90;99.90
21616;DHT22;10970;48.714;9.584;2022-07-24T02:14:21;17.90;99.90
21616;DHT22;10970;48.714;9.584;2022-07-24T02:16:47;17.90;99.90
21616;DHT22;10970;48.714;9.584;2022-07-24T02:19:13;17.90;99.90
21616;DHT22;10970;48.714;9.584;2022-07-24T02:21:39;17.90;99.90
21616;DHT22;10970;48.714;9.584;2022-07-24T02:24:04;17.90;99.90
21616;DHT22;10970;48.714;9.584;2022-07-24T02:26:30;17.90;99.90
21616;DHT22;10970;48.714;9.584;2022-07-24T02:28:56;18.00;99.90
21616;DHT22;10970;48.714;9.584;2022-07-24T02:31:22;17.90;99.90
21616;DHT22;10970;48.714;9.584;2022-07-24T02:33:48;17.90;99.90
21616;DHT22;10970;48.714;9.584;2022-07-24T02:36:13;17.80;99.90
21616;DHT22;10970;48.714;9.584;2022-07-24T02:38:40;17.80;99.90
21616;DHT22;10970;48.714;9.584;2022-07-24T02:41:06;17.80;99.90
21616;DHT22;10970;48.714;9.584;2022-07-24T02:43:31;17.80;99.90
21616;DHT22;10970;48.714;9.584;2022-07-24T02:45:57;17.80;99.90
21616;DHT22;10970;48.714;9.584;2022-07-24T02:48:23;17.70;99.90
21616;DHT22;10970;48.714;9.584;2022-07-24T02:50:49;17.70;99.90
21616;DHT22;10970;48.714;9.584;2022-07-24T02:53:14;17.70;99.90
21616;DHT22;10970;48.714;9.584;2022-07-24T02:55:40;17.70;99.90
21616;DHT22;10970;48.714;9.584;2022-07-24T02:58:06;17.70;99.90
21616;DHT22;10970;48.714;9.584;2022-07-24T03:00:31;17.70;99.90
21616;DHT22;10970;48.714;9.584;2022-07-24T03:02:57;17.70;99.90
21616;DHT22;10970;48.714;9.584;2022-07-24T03:05:23;17.70;99.90
21616;DHT22;10970;48.714;9.584;2022-07-24T03:07:49;17.50;99.90
21616;DHT22;10970;48.714;9.584;2022-07-24T03:10:15;17.50;99.90
21616;DHT22;10970;48.714;9.584;2022-07-24T03:12:42;17.50;99.90
21616;DHT22;10970;48.714;9.584;2022-07-24T03:15:10;17.40;99.90
21616;DHT22;10970;48.714;9.584;2022-07-24T03:17:36;17.30;99.90
21616;DHT22;10970;48.714;9.584;2022-07-24T03:20:03;17.40;99.90
21616;DHT22;10970;48.714;9.584;2022-07-24T03:22:29;17.40;99.90
21616;DHT22;10970;48.714;9.584;2022-07-24T03:24:54;17.50;99.90
21616;DHT22;10970;48.714;9.584;2022-07-24T03:27:20;17.50;99.90
21616;DHT22;10970;48.714;9.584;2022-07-24T03:29:46;17.50;99.90
21616;DHT22;10970;48.714;9.584;2022-07-24T03:32:11;17.50;99.90
21616;DHT22;10970;48.714;9.584;2022-07-24T03:34:37;17.50;99.90
21616;DHT22;10970;48.714;9.584;2022-07-24T03:37:03;17.50;99.90
21616;DHT22;10970;48.714;9.584;2022-07-24T03:39:28;17.50;99.90
21616;DHT22;10970;48.714;9.584;2022-07-24T03:41:54;17.40;99.90
21616;DHT22;10970;48.714;9.584;2022-07-24T03:44:19;17.30;99.90
21616;DHT22;10970;48.714;9.584;2022-07-24T03:46:45;17.40;99.90
21616;DHT22;10970;48.714;9.584;2022-07-24T03:49:11;17.40;99.90
21616;DHT22;10970;48.714;9.584;2022-07-24T03:51:36;17.30;99.90
21616;DHT22;10970;48.714;9.584;2022-07-24T03:54:03;17.30;99.90
21616;DHT22;10970;48.714;9.584;2022-07-24T03:56:28;17.20;99.90
21616;DHT22;10970;48.714;9.584;2022-07-24T03:58:55;17.30;99.90
21616;DHT22;10970;48.714;9.584;2022-07-24T04:01:23;17.20;99.90
21616;DHT22;10970;48.714;9.584;2022-07-24T04:03:49;17.20;99.90
21616;DHT22;10970;48.714;9.584;2022-07-24T04:06:14;17.20;99.90
21616;DHT22;10970;48.714;9.584;2022-07-24T04:08:40;17.20;99.90
21616;DHT22;10970;48.714;9.584;2022-07-24T04:11:06;17.20;99.90
21616;DHT22;10970;48.714;9.584;2022-07-24T04:13:33;17.20;99.90
21616;DHT22;10970;48.714;9.584;2022-07-24T04:15:58;17.20;99.90
21616;DHT22;10970;48.714;9.584;2022-07-24T04:18:25;17.30;99.90
21616;DHT22;10970;48.714;9.584;2022-07-24T04:20:50;17.20;99.90
21616;DHT22;10970;48.714;9.584;2022-07-24T04:23:16;17.30;99.90
21616;DHT22;10970;48.714;9.584;2022-07-24T04:25:42;17.30;99.90
21616;DHT22;10970;48.714;9.584;2022-07-24T04:28:08;17.30;99.90
21616;DHT22;10970;48.714;9.584;2022-07-24T04:30:33;17.20;99.90
21616;DHT22;10970;48.714;9.584;2022-07-24T04:32:59;17.20;99.90
21616;DHT22;10970;48.714;9.584;2022-07-24T04:35:25;17.20;99.90
21616;DHT22;10970;48.714;9.584;2022-07-24T04:37:51;17.20;99.90
21616;DHT22;10970;48.714;9.584;2022-07-24T04:40:16;17.20;99.90
21616;DHT22;10970;48.714;9.584;2022-07-24T04:42:42;17.30;99.90
21616;DHT22;10970;48.714;9.584;2022-07-24T04:45:08;17.30;99.90
21616;DHT22;10970;48.714;9.584;2022-07-24T04:47:35;17.40;99.90
21616;DHT22;10970;48.714;9.584;2022-07-24T04:50:02;17.40;99.90
21616;DHT22;10970;48.714;9.584;2022-07-24T04:52:27;17.50;99.90
21616;DHT22;10970;48.714;9.584;2022-07-24T04:54:53;17.70;99.90
21616;DHT22;10970;48.714;9.584;2022-07-24T04:57:19;17.60;99.90
21616;DHT22;10970;48.714;9.584;2022-07-24T04:59:44;17.70;99.90
21616;DHT22;10970;48.714;9.584;2022-07-24T05:02:10;17.80;99.90
21616;DHT22;10970;48.714;9.584;2022-07-24T05:04:36;17.90;99.90
21616;DHT22;10970;48.714;9.584;2022-07-24T05:07:02;17.90;99.90
21616;DHT22;10970;48.714;9.584;2022-07-24T05:09:28;18.00;99.90
21616;DHT22;10970;48.714;9.584;2022-07-24T05:11:54;18.20;99.90
21616;DHT22;10970;48.714;9.584;2022-07-24T05:14:20;18.40;99.90
21616;DHT22;10970;48.714;9.584;2022-07-24T05:16:46;18.70;99.90
21616;DHT22;10970;48.714;9.584;2022-07-24T05:19:11;18.90;99.90
21616;DHT22;10970;48.714;9.584;2022-07-24T05:21:37;19.10;99.90
21616;DHT22;10970;48.714;9.584;2022-07-24T05:24:03;19.20;99.90
21616;DHT22;10970;48.714;9.584;2022-07-24T05:26:29;19.40;99.90
21616;DHT22;10970;48.714;9.584;2022-07-24T05:29:00;19.60;99.90
21616;DHT22;10970;48.714;9.584;2022-07-24T05:31:26;19.70;99.90
21616;DHT22;10970;48.714;9.584;2022-07-24T05:33:52;19.80;99.90
21616;DHT22;10970;48.714;9.584;2022-07-24T05:36:18;19.70;99.90
21616;DHT22;10970;48.714;9.584;2022-07-24T05:38:44;19.70;99.90
21616;DHT22;10970;48.714;9.584;2022-07-24T05:41:11;19.80;99.90
21616;DHT22;10970;48.714;9.584;2022-07-24T05:43:37;20.00;99.90
21616;DHT22;10970;48.714;9.584;2022-07-24T05:46:03;20.10;99.90
21616;DHT22;10970;48.714;9.584;2022-07-24T05:48:29;20.00;99.90
21616;DHT22;10970;48.714;9.584;2022-07-24T05:50:55;20.10;99.90
21616;DHT22;10970;48.714;9.584;2022-07-24T05:53:21;20.50;99.90
21616;DHT22;10970;48.714;9.584;2022-07-24T05:55:48;20.60;99.90
21616;DHT22;10970;48.714;9.584;2022-07-24T06:00:40;21.00;99.90
21616;DHT22;10970;48.714;9.584;2022-07-24T06:03:06;21.10;99.90
21616;DHT22;10970;48.714;9.584;2022-07-24T06:07:57;21.40;99.90
21616;DHT22;10970;48.714;9.584;2022-07-24T06:10:23;21.40;99.90
21616;DHT22;10970;48.714;9.584;2022-07-24T06:12:49;20.10;99.90
21616;DHT22;10970;48.714;9.584;2022-07-24T06:22:33;21.90;99.90
21616;DHT22;10970;48.714;9.584;2022-07-24T06:34:43;22.10;99.90
21616;DHT22;10970;48.714;9.584;2022-07-24T06:37:09;22.10;99.90
21616;DHT22;10970;48.714;9.584;2022-07-24T06:39:34;22.10;99.90
21616;DHT22;10970;48.714;9.584;2022-07-24T06:42:00;22.10;99.90
21616;DHT22;10970;48.714;9.584;2022-07-24T06:44:26;22.30;99.90
21616;DHT22;10970;48.714;9.584;2022-07-24T06:46:52;22.30;99.90
21616;DHT22;10970;48.714;9.584;2022-07-24T06:49:17;22.40;99.90
21616;DHT22;10970;48.714;9.584;2022-07-24T06:51:43;22.50;99.90
21616;DHT22;10970;48.714;9.584;2022-07-24T06:54:09;22.40;99.90
21616;DHT22;10970;48.714;9.584;2022-07-24T06:56:34;22.60;99.90
21616;DHT22;10970;48.714;9.584;2022-07-24T06:59:01;22.60;99.90
21616;DHT22;10970;48.714;9.584;2022-07-24T07:01:27;22.70;99.90
21616;DHT22;10970;48.714;9.584;2022-07-24T07:03:56;22.70;99.90
21616;DHT22;10970;48.714;9.584;2022-07-24T07:06:21;22.90;99.90
21616;DHT22;10970;48.714;9.584;2022-07-24T07:08:47;23.00;99.90
21616;DHT22;10970;48.714;9.584;2022-07-24T07:11:13;23.10;99.90
21616;DHT22;10970;48.714;9.584;2022-07-24T07:13:38;23.30;99.90
21616;DHT22;10970;48.714;9.584;2022-07-24T07:16:04;23.50;99.90
21616;DHT22;10970;48.714;9.584;2022-07-24T07:18:30;23.80;99.90
21616;DHT22;10970;48.714;9.584;2022-07-24T07:20:55;24.00;99.90
21616;DHT22;10970;48.714;9.584;2022-07-24T07:23:22;24.00;99.90
21616;DHT22;10970;48.714;9.584;2022-07-24T07:25:49;24.30;99.90
21616;DHT22;10970;48.714;9.584;2022-07-24T07:28:15;24.40;99.90
21616;DHT22;10970;48.714;9.584;2022-07-24T07:33:07;24.80;99.90
21616;DHT22;10970;48.714;9.584;2022-07-24T07:35:32;24.80;99.90
21616;DHT22;10970;48.714;9.584;2022-07-24T07:40:25;25.30;99.90
21616;DHT22;10970;48.714;9.584;2022-07-24T07:55:02;26.50;99.90
21616;DHT22;10970;48.714;9.584;2022-07-24T07:57:28;26.90;99.90
21616;DHT22;10970;48.714;9.584;2022-07-24T07:59:53;26.90;99.90
21616;DHT22;10970;48.714;9.584;2022-07-24T08:02:19;27.00;99.90
21616;DHT22;10970;48.714;9.584;2022-07-24T08:04:45;27.20;99.90
21616;DHT22;10970;48.714;9.584;2022-07-24T08:09:36;27.60;99.90
21616;DHT22;10970;48.714;9.584;2022-07-24T08:12:03;27.80;99.90
21616;DHT22;10970;48.714;9.584;2022-07-24T08:14:29;28.00;99.90
21616;DHT22;10970;48.714;9.584;2022-07-24T08:16:55;28.60;99.90
21616;DHT22;10970;48.714;9.584;2022-07-24T08:19:21;28.60;99.90
21616;DHT22;10970;48.714;9.584;2022-07-24T08:21:46;28.70;99.90
21616;DHT22;10970;48.714;9.584;2022-07-24T08:24:12;28.80;99.90
21616;DHT22;10970;48.714;9.584;2022-07-24T08:26:38;28.60;99.90
21616;DHT22;10970;48.714;9.584;2022-07-24T08:33:57;29.30;99.90
21616;DHT22;10970;48.714;9.584;2022-07-24T08:41:14;29.50;99.90
21616;DHT22;10970;48.714;9.584;2022-07-24T08:43:41;29.70;99.90
21616;DHT22;10970;48.714;9.584;2022-07-24T08:46:09;29.80;99.90
21616;DHT22;10970;48.714;9.584;2022-07-24T08:48:41;29.60;99.90
21616;DHT22;10970;48.714;9.584;2022-07-24T09:05:58;30.50;99.90
21616;DHT22;10970;48.714;9.584;2022-07-24T09:11:02;30.70;99.90
21616;DHT22;10970;48.714;9.584;2022-07-24T09:13:33;30.60;99.90
21616;DHT22;10970;48.714;9.584;2022-07-24T09:16:22;30.70;99.90
21616;DHT22;10970;48.714;9.584;2022-07-24T09:18:51;30.70;99.90
21616;DHT22;10970;48.714;9.584;2022-07-24T09:21:17;30.80;99.90
21616;DHT22;10970;48.714;9.584;2022-07-24T09:23:44;30.30;99.90
21616;DHT22;10970;48.714;9.584;2022-07-24T09:26:10;30.50;99.90
21616;DHT22;10970;48.714;9.584;2022-07-24T09:28:54;30.50;99.90
21616;DHT22;10970;48.714;9.584;2022-07-24T09:31:21;30.50;99.90
21616;DHT22;10970;48.714;9.584;2022-07-24T09:36:16;30.30;99.90
21616;DHT22;10970;48.714;9.584;2022-07-24T09:38:49;30.30;99.90
21616;DHT22;10970;48.714;9.584;2022-07-24T09:41:22;30.30;99.90
21616;DHT22;10970;48.714;9.584;2022-07-24T09:48:59;30.00;99.90
21616;DHT22;10970;48.714;9.584;2022-07-24T09:51:26;30.10;99.90
21616;DHT22;10970;48.714;9.584;2022-07-24T09:53:58;30.00;99.90
21616;DHT22;10970;48.714;9.584;2022-07-24T09:56:25;29.70;99.90
21616;DHT22;10970;48.714;9.584;2022-07-24T09:58:54;29.80;99.90
21616;DHT22;10970;48.714;9.584;2022-07-24T10:01:23;30.00;99.90
21616;DHT22;10970;48.714;9.584;2022-07-24T10:03:50;29.80;99.90
21616;DHT22;10970;48.714;9.584;2022-07-24T10:06:21;29.90;99.90
21616;DHT22;10970;48.714;9.584;2022-07-24T10:08:49;29.90;99.90
21616;DHT22;10970;48.714;9.584;2022-07-24T10:11:16;30.30;99.90
21616;DHT22;10970;48.714;9.584;2022-07-24T10:13:43;30.10;99.90
21616;DHT22;10970;48.714;9.584;2022-07-24T10:18:47;29.50;99.90
21616;DHT22;10970;48.714;9.584;2022-07-24T10:26:44;29.30;99.90
21616;DHT22;10970;48.714;9.584;2022-07-24T10:29:22;29.50;99.90
21616;DHT22;10970;48.714;9.584;2022-07-24T10:31:53;29.80;99.90
21616;DHT22;10970;48.714;9.584;2022-07-24T10:34:53;30.10;99.90
21616;DHT22;10970;48.714;9.584;2022-07-24T10:40:20;29.50;99.30
21616;DHT22;10970;48.714;9.584;2022-07-24T10:46:09;29.30;99.90
21616;DHT22;10970;48.714;9.584;2022-07-24T10:48:36;29.10;99.90
21616;DHT22;10970;48.714;9.584;2022-07-24T10:51:15;29.10;99.90
21616;DHT22;10970;48.714;9.584;2022-07-24T10:53:48;28.10;99.90
21616;DHT22;10970;48.714;9.584;2022-07-24T10:56:16;29.20;99.90
21616;DHT22;10970;48.714;9.584;2022-07-24T11:01:40;29.10;99.90
21616;DHT22;10970;48.714;9.584;2022-07-24T11:07:09;29.40;98.50
21616;DHT22;10970;48.714;9.584;2022-07-24T11:12:31;29.00;98.40
21616;DHT22;10970;48.714;9.584;2022-07-24T11:15:02;29.20;98.90
21616;DHT22;10970;48.714;9.584;2022-07-24T11:17:47;28.90;97.10
21616;DHT22;10970;48.714;9.584;2022-07-24T11:20:21;28.90;96.20
21616;DHT22;10970;48.714;9.584;2022-07-24T11:22:52;28.80;96.10
21616;DHT22;10970;48.714;9.584;2022-07-24T11:25:26;28.80;96.30
21616;DHT22;10970;48.714;9.584;2022-07-24T11:27:57;28.80;96.50
21616;DHT22;10970;48.714;9.584;2022-07-24T11:30:25;28.70;97.60
21616;DHT22;10970;48.714;9.584;2022-07-24T11:32:51;28.70;98.70
21616;DHT22;10970;48.714;9.584;2022-07-24T11:35:35;28.70;99.90
21616;DHT22;10970;48.714;9.584;2022-07-24T11:38:03;28.90;98.60
21616;DHT22;10970;48.714;9.584;2022-07-24T11:40:29;29.00;99.00
21616;DHT22;10970;48.714;9.584;2022-07-24T11:43:00;29.00;98.90
21616;DHT22;10970;48.714;9.584;2022-07-24T11:45:27;29.30;99.90
21616;DHT22;10970;48.714;9.584;2022-07-24T11:47:52;29.50;99.20
21616;DHT22;10970;48.714;9.584;2022-07-24T11:50:23;29.50;97.90
21616;DHT22;10970;48.714;9.584;2022-07-24T11:52:51;29.50;98.60
21616;DHT22;10970;48.714;9.584;2022-07-24T11:55:18;29.30;99.30
21616;DHT22;10970;48.714;9.584;2022-07-24T11:57:49;29.40;99.20
21616;DHT22;10970;48.714;9.584;2022-07-24T12:00:19;29.40;99.30
21616;DHT22;10970;48.714;9.584;2022-07-24T12:02:46;29.20;96.80
21616;DHT22;10970;48.714;9.584;2022-07-24T12:05:13;29.10;96.80
21616;DHT22;10970;48.714;9.584;2022-07-24T12:10:05;29.10;96.00
21616;DHT22;10970;48.714;9.584;2022-07-24T12:12:51;29.10;98.30
21616;DHT22;10970;48.714;9.584;2022-07-24T12:15:19;29.20;96.60
21616;DHT22;10970;48.714;9.584;2022-07-24T12:18:08;29.10;98.30
21616;DHT22;10970;48.714;9.584;2022-07-24T12:20:38;29.10;96.70
21616;DHT22;10970;48.714;9.584;2022-07-24T12:23:09;29.10;96.40
21616;DHT22;10970;48.714;9.584;2022-07-24T12:28:16;29.30;97.90
21616;DHT22;10970;48.714;9.584;2022-07-24T12:30:43;29.30;98.00
21616;DHT22;10970;48.714;9.584;2022-07-24T12:46:10;29.10;97.80
21616;DHT22;10970;48.714;9.584;2022-07-24T12:48:36;29.30;97.70
21616;DHT22;10970;48.714;9.584;2022-07-24T12:51:05;29.30;98.00
21616;DHT22;10970;48.714;9.584;2022-07-24T12:53:33;29.50;97.40
21616;DHT22;10970;48.714;9.584;2022-07-24T12:56:12;29.60;98.20
21616;DHT22;10970;48.714;9.584;2022-07-24T12:59:01;29.70;97.50
21616;DHT22;10970;48.714;9.584;2022-07-24T13:01:47;29.70;97.70
21616;DHT22;10970;48.714;9.584;2022-07-24T13:04:19;29.60;97.50
21616;DHT22;10970;48.714;9.584;2022-07-24T13:06:48;29.60;98.10
21616;DHT22;10970;48.714;9.584;2022-07-24T13:09:15;29.60;97.90
21616;DHT22;10970;48.714;9.584;2022-07-24T13:11:42;29.40;96.70
21616;DHT22;10970;48.714;9.584;2022-07-24T13:14:09;29.40;99.90
21616;DHT22;10970;48.714;9.584;2022-07-24T13:16:38;29.60;97.90
21616;DHT22;10970;48.714;9.584;2022-07-24T13:19:04;29.60;97.40
21616;DHT22;10970;48.714;9.584;2022-07-24T13:21:30;29.70;98.10
21616;DHT22;10970;48.714;9.584;2022-07-24T13:23:56;29.60;99.20
21616;DHT22;10970;48.714;9.584;2022-07-24T13:31:15;29.60;98.10
21616;DHT22;10970;48.714;9.584;2022-07-24T13:33:41;29.50;97.20
21616;DHT22;10970;48.714;9.584;2022-07-24T13:36:07;29.40;96.50
21616;DHT22;10970;48.714;9.584;2022-07-24T14:05:27;29.70;99.20
21616;DHT22;10970;48.714;9.584;2022-07-24T14:10:20;29.50;97.60
21616;DHT22;10970;48.714;9.584;2022-07-24T14:12:46;29.40;99.90
21616;DHT22;10970;48.714;9.584;2022-07-24T14:15:12;29.40;98.20
21616;DHT22;10970;48.714;9.584;2022-07-24T14:17:39;29.50;97.80
21616;DHT22;10970;48.714;9.584;2022-07-24T14:20:06;29.50;97.90
21616;DHT22;10970;48.714;9.584;2022-07-24T14:22:33;29.70;97.70
21616;DHT22;10970;48.714;9.584;2022-07-24T14:24:59;29.70;97.50
21616;DHT22;10970;48.714;9.584;2022-07-24T14:27:25;29.90;97.90
21616;DHT22;10970;48.714;9.584;2022-07-24T14:29:51;30.00;98.00
21616;DHT22;10970;48.714;9.584;2022-07-24T14:34:43;29.90;97.40
21616;DHT22;10970;48.714;9.584;2022-07-24T14:37:08;30.10;97.80
21616;DHT22;10970;48.714;9.584;2022-07-24T14:39:34;30.00;97.50
21616;DHT22;10970;48.714;9.584;2022-07-24T14:42:00;30.00;97.50
21616;DHT22;10970;48.714;9.584;2022-07-24T14:44:25;30.00;97.80
21616;DHT22;10970;48.714;9.584;2022-07-24T14:46:52;30.10;97.30
21616;DHT22;10970;48.714;9.584;2022-07-24T14:49:17;30.20;98.10
21616;DHT22;10970;48.714;9.584;2022-07-24T14:51:43;30.00;99.60
21616;DHT22;10970;48.714;9.584;2022-07-24T14:59:02;30.10;97.60
21616;DHT22;10970;48.714;9.584;2022-07-24T15:01:28;30.20;97.90
21616;DHT22;10970;48.714;9.584;2022-07-24T15:03:54;30.30;97.70
21616;DHT22;10970;48.714;9.584;2022-07-24T15:06:19;30.20;98.00
21616;DHT22;10970;48.714;9.584;2022-07-24T15:16:09;30.70;97.00
21616;DHT22;10970;48.714;9.584;2022-07-24T15:18:35;30.60;97.00
21616;DHT22;10970;48.714;9.584;2022-07-24T15:21:02;30.60;99.00
21616;DHT22;10970;48.714;9.584;2022-07-24T15:23:28;30.60;99.90
21616;DHT22;10970;48.714;9.584;2022-07-24T15:40:31;30.30;96.10
21616;DHT22;10970;48.714;9.584;2022-07-24T15:42:57;30.40;96.40
21616;DHT22;10970;48.714;9.584;2022-07-24T15:47:50;30.50;97.50
21616;DHT22;10970;48.714;9.584;2022-07-24T15:50:17;30.50;97.50
21616;DHT22;10970;48.714;9.584;2022-07-24T15:52:43;30.50;97.80
21616;DHT22;10970;48.714;9.584;2022-07-24T15:55:09;30.40;98.10
21616;DHT22;10970;48.714;9.584;2022-07-24T15:57:35;30.50;98.20
21616;DHT22;10970;48.714;9.584;2022-07-24T16:00:00;30.50;97.80
21616;DHT22;10970;48.714;9.584;2022-07-24T16:02:26;30.50;97.90
21616;DHT22;10970;48.714;9.584;2022-07-24T16:04:52;30.60;97.80
21616;DHT22;10970;48.714;9.584;2022-07-24T16:07:18;30.60;96.90
21616;DHT22;10970;48.714;9.584;2022-07-24T16:09:45;30.60;97.20
21616;DHT22;10970;48.714;9.584;2022-07-24T16:12:11;30.50;99.20
21616;DHT22;10970;48.714;9.584;2022-07-24T16:14:37;30.80;98.90
21616;DHT22;10970;48.714;9.584;2022-07-24T16:17:02;30.90;99.30
21616;DHT22;10970;48.714;9.584;2022-07-24T16:19:28;30.90;98.20
21616;DHT22;10970;48.714;9.584;2022-07-24T16:21:54;30.90;98.60
21616;DHT22;10970;48.714;9.584;2022-07-24T16:24:20;30.90;96.60
21616;DHT22;10970;48.714;9.584;2022-07-24T16:26:45;30.90;96.50
21616;DHT22;10970;48.714;9.584;2022-07-24T16:29:12;31.00;96.90
21616;DHT22;10970;48.714;9.584;2022-07-24T16:31:38;31.00;97.10
21616;DHT22;10970;48.714;9.584;2022-07-24T16:34:04;31.20;95.70
21616;DHT22;10970;48.714;9.584;2022-07-24T16:36:29;31.20;95.70
21616;DHT22;10970;48.714;9.584;2022-07-24T16:38:55;31.40;95.30
21616;DHT22;10970;48.714;9.584;2022-07-24T16:41:20;31.40;95.70
21616;DHT22;10970;48.714;9.584;2022-07-24T16:43:46;31.50;95.10
21616;DHT22;10970;48.714;9.584;2022-07-24T16:46:12;31.60;95.30
21616;DHT22;10970;48.714;9.584;2022-07-24T16:48:39;31.80;95.40
21616;DHT22;10970;48.714;9.584;2022-07-24T16:51:04;31.80;95.00
21616;DHT22;10970;48.714;9.584;2022-07-24T16:53:30;31.80;94.70
21616;DHT22;10970;48.714;9.584;2022-07-24T16:55:56;31.90;95.00
21616;DHT22;10970;48.714;9.584;2022-07-24T16:58:21;31.90;95.40
21616;DHT22;10970;48.714;9.584;2022-07-24T17:00:47;31.60;95.40
21616;DHT22;10970;48.714;9.584;2022-07-24T17:03:13;31.50;95.80
21616;DHT22;10970;48.714;9.584;2022-07-24T17:05:38;31.40;95.50
21616;DHT22;10970;48.714;9.584;2022-07-24T17:08:04;31.00;95.40
21616;DHT22;10970;48.714;9.584;2022-07-24T17:10:30;30.80;95.30
21616;DHT22;10970;48.714;9.584;2022-07-24T17:12:56;30.60;95.70
21616;DHT22;10970;48.714;9.584;2022-07-24T17:15:22;30.60;95.80
21616;DHT22;10970;48.714;9.584;2022-07-24T17:20:26;30.30;95.70
21616;DHT22;10970;48.714;9.584;2022-07-24T17:22:52;30.10;96.30
21616;DHT22;10970;48.714;9.584;2022-07-24T17:30:11;30.00;97.10
21616;DHT22;10970;48.714;9.584;2022-07-24T17:35:03;29.90;97.20
21616;DHT22;10970;48.714;9.584;2022-07-24T17:39:55;29.90;97.10
21616;DHT22;10970;48.714;9.584;2022-07-24T17:42:22;29.80;96.70
21616;DHT22;10970;48.714;9.584;2022-07-24T17:44:48;29.80;96.90
21616;DHT22;10970;48.714;9.584;2022-07-24T17:47:16;29.70;97.90
21616;DHT22;10970;48.714;9.584;2022-07-24T17:49:42;29.70;97.60
21616;DHT22;10970;48.714;9.584;2022-07-24T17:52:08;29.60;97.90
21616;DHT22;10970;48.714;9.584;2022-07-24T17:54:34;29.60;98.10
21616;DHT22;10970;48.714;9.584;2022-07-24T17:57:01;29.60;98.40
21616;DHT22;10970;48.714;9.584;2022-07-24T17:59:26;29.50;98.70
21616;DHT22;10970;48.714;9.584;2022-07-24T18:01:52;29.50;98.60
21616;DHT22;10970;48.714;9.584;2022-07-24T18:04:19;29.50;99.40
21616;DHT22;10970;48.714;9.584;2022-07-24T18:06:44;29.40;99.60
21616;DHT22;10970;48.714;9.584;2022-07-24T18:09:10;29.40;99.90
21616;DHT22;10970;48.714;9.584;2022-07-24T18:11:36;29.30;99.90
21616;DHT22;10970;48.714;9.584;2022-07-24T18:14:02;29.30;99.90
21616;DHT22;10970;48.714;9.584;2022-07-24T18:16:27;29.10;99.90
21616;DHT22;10970;48.714;9.584;2022-07-24T18:18:53;29.00;99.90
21616;DHT22;10970;48.714;9.584;2022-07-24T18:21:19;29.00;99.90
21616;DHT22;10970;48.714;9.584;2022-07-24T18:23:44;28.90;99.90
21616;DHT22;10970;48.714;9.584;2022-07-24T18:26:10;28.80;99.90
21616;DHT22;10970;48.714;9.584;2022-07-24T18:28:36;28.70;99.90
21616;DHT22;10970;48.714;9.584;2022-07-24T18:31:02;28.60;99.90
21616;DHT22;10970;48.714;9.584;2022-07-24T18:33:27;28.60;99.90
21616;DHT22;10970;48.714;9.584;2022-07-24T18:35:53;28.50;99.90
21616;DHT22;10970;48.714;9.584;2022-07-24T18:40:45;28.00;99.90
21616;DHT22;10970;48.714;9.584;2022-07-24T18:43:11;27.90;99.90
21616;DHT22;10970;48.714;9.584;2022-07-24T18:45:36;27.70;99.90